DLH13U EDDF-LTFM
Flight info
| Callsign | DLH13U |
|---|---|
| Flight time | N/A |
| Altitude | 31000 |
| Route | CINDY8S CINDY Z74 HAREM DCT ASLEP DCT TAKUT DCT DINKU L603 BESNI/N0480F390 L605 MIQ/N0480F350 DCT ALUTU DCT BIBAG L605 ESEGA DCT VELOM/N0479F390 DCT GOTAR DCT BABIT DCT ESIRI DCT ETIDA T390 RILEX |
| Aircraft | A346/H-SDE2E3FGHIJ3J4J5M1RWXY/LB1D1 |
Departure
| Time | N/A |
|---|---|
| Airport | Frankfurt Main Airport (EDDF) |
Arrival
| Time | 2026-05-07 22:41 |
|---|---|
| Airport | İstanbul Airport (LTFM) |
| Time | Latitude | Longitude | Altitude | Speed | Heading |
|---|---|---|---|---|---|
| 2026-05-07 22:18 | 42.05137 | 26.48614 | 34261 ft | 491 kts | 128° |
| 2026-05-07 22:18 | 42.01058 | 26.56034 | 32660 ft | 494 kts | 128° |
| 2026-05-07 22:18 | 41.99013 | 26.59750 | 31827 ft | 496 kts | 128° |
| 2026-05-07 22:19 | 41.96951 | 26.63492 | 30962 ft | 498 kts | 128° |
| 2026-05-07 22:19 | 41.94883 | 26.67242 | 30068 ft | 500 kts | 128° |
| 2026-05-07 22:19 | 41.92803 | 26.71008 | 29146 ft | 502 kts | 128° |
| 2026-05-07 22:19 | 41.90722 | 26.74773 | 28359 ft | 501 kts | 128° |
| 2026-05-07 22:20 | 41.88656 | 26.78506 | 27850 ft | 494 kts | 128° |
| 2026-05-07 22:20 | 41.86621 | 26.82182 | 27345 ft | 486 kts | 128° |
| 2026-05-07 22:20 | 41.84601 | 26.85823 | 26767 ft | 481 kts | 128° |
| 2026-05-07 22:20 | 41.82607 | 26.89414 | 26160 ft | 477 kts | 128° |
| 2026-05-07 22:21 | 41.80630 | 26.92967 | 25565 ft | 473 kts | 129° |
| 2026-05-07 22:21 | 41.78668 | 26.96487 | 24956 ft | 468 kts | 129° |
| 2026-05-07 22:21 | 41.76728 | 26.99964 | 24353 ft | 464 kts | 129° |
| 2026-05-07 22:21 | 41.74793 | 27.03429 | 23760 ft | 460 kts | 129° |
| 2026-05-07 22:22 | 41.72879 | 27.06852 | 23152 ft | 456 kts | 129° |
| 2026-05-07 22:22 | 41.70983 | 27.10239 | 22564 ft | 452 kts | 129° |
| 2026-05-07 22:22 | 41.69101 | 27.13599 | 21964 ft | 448 kts | 129° |
| 2026-05-07 22:22 | 41.67232 | 27.16932 | 21380 ft | 444 kts | 129° |
| 2026-05-07 22:23 | 41.65379 | 27.20233 | 20740 ft | 442 kts | 129° |
| 2026-05-07 22:23 | 41.63536 | 27.23514 | 20202 ft | 437 kts | 129° |
| 2026-05-07 22:23 | 41.61737 | 27.26713 | 19709 ft | 432 kts | 129° |
| 2026-05-07 22:23 | 41.59940 | 27.29905 | 19227 ft | 427 kts | 129° |
| 2026-05-07 22:24 | 41.58160 | 27.33063 | 18758 ft | 422 kts | 129° |
| 2026-05-07 22:24 | 41.56407 | 27.36171 | 18286 ft | 417 kts | 129° |
| 2026-05-07 22:24 | 41.54667 | 27.39253 | 17832 ft | 412 kts | 129° |
| 2026-05-07 22:24 | 41.52945 | 27.42297 | 17380 ft | 408 kts | 129° |
| 2026-05-07 22:25 | 41.51240 | 27.45310 | 16921 ft | 404 kts | 129° |
| 2026-05-07 22:25 | 41.49549 | 27.48295 | 16478 ft | 401 kts | 129° |
| 2026-05-07 22:25 | 41.47874 | 27.51249 | 16024 ft | 397 kts | 129° |
| 2026-05-07 22:25 | 41.46213 | 27.54176 | 15577 ft | 394 kts | 129° |
| 2026-05-07 22:26 | 41.44561 | 27.57084 | 15118 ft | 391 kts | 129° |
| 2026-05-07 22:26 | 41.42918 | 27.59973 | 14683 ft | 388 kts | 129° |
| 2026-05-07 22:26 | 41.41290 | 27.62833 | 14241 ft | 386 kts | 129° |
| 2026-05-07 22:26 | 41.39673 | 27.65670 | 13787 ft | 383 kts | 129° |
| 2026-05-07 22:27 | 41.38066 | 27.68489 | 13356 ft | 380 kts | 129° |
| 2026-05-07 22:27 | 41.36469 | 27.71286 | 12919 ft | 377 kts | 130° |
| 2026-05-07 22:27 | 41.34887 | 27.74056 | 12485 ft | 375 kts | 130° |
| 2026-05-07 22:27 | 41.33310 | 27.76815 | 12037 ft | 372 kts | 130° |
| 2026-05-07 22:28 | 41.31745 | 27.79548 | 11604 ft | 369 kts | 130° |
| 2026-05-07 22:28 | 41.30172 | 27.82289 | 11181 ft | 377 kts | 130° |
| 2026-05-07 22:28 | 41.28558 | 27.85077 | 10754 ft | 378 kts | 130° |
| 2026-05-07 22:28 | 41.26971 | 27.87826 | 10324 ft | 371 kts | 130° |
| 2026-05-07 22:29 | 41.25433 | 27.90500 | 9900 ft | 366 kts | 130° |
| 2026-05-07 22:29 | 41.23898 | 27.93170 | 9501 ft | 359 kts | 130° |
| 2026-05-07 22:29 | 41.22399 | 27.95778 | 9242 ft | 349 kts | 130° |
| 2026-05-07 22:29 | 41.20944 | 27.98310 | 8993 ft | 340 kts | 130° |
| 2026-05-07 22:30 | 41.19523 | 28.00780 | 8735 ft | 331 kts | 130° |
| 2026-05-07 22:30 | 41.18139 | 28.03183 | 8487 ft | 323 kts | 130° |
| 2026-05-07 22:30 | 41.16792 | 28.05520 | 8229 ft | 315 kts | 130° |
| 2026-05-07 22:30 | 41.15469 | 28.07813 | 7986 ft | 309 kts | 130° |
| 2026-05-07 22:31 | 41.14177 | 28.10051 | 7724 ft | 302 kts | 130° |
| 2026-05-07 22:31 | 41.12911 | 28.12243 | 7462 ft | 296 kts | 130° |
| 2026-05-07 22:31 | 41.11831 | 28.14546 | 7186 ft | 294 kts | 114° |
| 2026-05-07 22:31 | 41.11444 | 28.17150 | 6943 ft | 292 kts | 93° |
| 2026-05-07 22:32 | 41.11467 | 28.19840 | 6691 ft | 291 kts | 89° |
| 2026-05-07 22:32 | 41.11544 | 28.22522 | 6438 ft | 290 kts | 89° |
| 2026-05-07 22:32 | 41.11622 | 28.25194 | 6196 ft | 289 kts | 89° |
| 2026-05-07 22:32 | 41.11688 | 28.27864 | 5936 ft | 288 kts | 90° |
| 2026-05-07 22:33 | 41.11747 | 28.30517 | 5697 ft | 286 kts | 90° |
| 2026-05-07 22:33 | 41.11798 | 28.33134 | 5490 ft | 282 kts | 90° |
| 2026-05-07 22:33 | 41.11844 | 28.35732 | 5285 ft | 280 kts | 91° |
| 2026-05-07 22:33 | 41.11886 | 28.38304 | 5083 ft | 277 kts | 91° |
| 2026-05-07 22:34 | 41.11927 | 28.40851 | 4883 ft | 274 kts | 90° |
| 2026-05-07 22:34 | 41.11966 | 28.43370 | 4678 ft | 272 kts | 91° |
| 2026-05-07 22:34 | 41.12003 | 28.45863 | 4478 ft | 269 kts | 91° |
| 2026-05-07 22:34 | 41.12038 | 28.48351 | 4284 ft | 267 kts | 90° |
| 2026-05-07 22:35 | 41.12074 | 28.50822 | 4080 ft | 265 kts | 90° |
| 2026-05-07 22:35 | 41.12110 | 28.53266 | 3875 ft | 264 kts | 90° |
| 2026-05-07 22:35 | 41.12145 | 28.55697 | 3674 ft | 263 kts | 90° |
| 2026-05-07 22:35 | 41.12181 | 28.58158 | 3469 ft | 262 kts | 89° |
| 2026-05-07 22:36 | 41.12216 | 28.60566 | 3264 ft | 261 kts | 89° |
| 2026-05-07 22:36 | 41.12250 | 28.62955 | 3126 ft | 254 kts | 89° |
| 2026-05-07 22:36 | 41.12283 | 28.65251 | 3043 ft | 243 kts | 89° |
| 2026-05-07 22:36 | 41.12315 | 28.67455 | 2959 ft | 233 kts | 89° |
| 2026-05-07 22:37 | 41.12348 | 28.69568 | 2873 ft | 223 kts | 85° |
| 2026-05-07 22:37 | 41.12840 | 28.71452 | 2798 ft | 218 kts | 51° |
| 2026-05-07 22:37 | 41.14046 | 28.72640 | 2717 ft | 215 kts | 21° |
| 2026-05-07 22:37 | 41.15478 | 28.73014 | 2477 ft | 210 kts | 5° |
| 2026-05-07 22:38 | 41.16902 | 28.73021 | 2124 ft | 198 kts | 358° |
| 2026-05-07 22:38 | 41.18229 | 28.72947 | 1848 ft | 183 kts | 358° |
| 2026-05-07 22:38 | 41.19445 | 28.72901 | 1627 ft | 167 kts | 359° |
| 2026-05-07 22:38 | 41.20555 | 28.72878 | 1425 ft | 154 kts | 359° |
| 2026-05-07 22:39 | 41.21618 | 28.72858 | 1235 ft | 152 kts | 0° |
| 2026-05-07 22:39 | 41.22692 | 28.72848 | 1062 ft | 154 kts | 359° |
| 2026-05-07 22:39 | 41.23772 | 28.72828 | 893 ft | 157 kts | 359° |
| 2026-05-07 22:39 | 41.24874 | 28.72808 | 665 ft | 160 kts | 360° |
| 2026-05-07 22:40 | 41.25995 | 28.72783 | 426 ft | 161 kts | 359° |
| 2026-05-07 22:40 | 41.27068 | 28.72759 | 316 ft | 143 kts | 359° |
| 2026-05-07 22:40 | 41.27888 | 28.72742 | 286 ft | 82 kts | 359° |
| 2026-05-07 22:40 | 41.28390 | 28.72737 | 269 ft | 57 kts | 4° |
| 2026-05-07 22:41 | 41.28686 | 28.72846 | 269 ft | 27 kts | 35° |
| 2026-05-07 22:41 | 41.28686 | 28.72947 | 271 ft | 12 kts | 170° |
| 2026-05-07 22:41 | 41.28590 | 28.72956 | 271 ft | 16 kts | 179° |
| 2026-05-07 22:41 | 41.28470 | 28.72958 | 273 ft | 18 kts | 179° |
| 2026-05-07 22:42 | 41.28339 | 28.72960 | 277 ft | 19 kts | 179° |
| 2026-05-07 22:42 | 41.28198 | 28.72963 | 281 ft | 20 kts | 179° |
| 2026-05-07 22:42 | 41.28057 | 28.72966 | 286 ft | 20 kts | 179° |
| 2026-05-07 22:42 | 41.27912 | 28.72970 | 292 ft | 21 kts | 180° |
| 2026-05-07 22:43 | 41.27767 | 28.72972 | 301 ft | 21 kts | 179° |
| 2026-05-07 22:43 | 41.27621 | 28.72975 | 305 ft | 21 kts | 179° |
| 2026-05-07 22:43 | 41.27474 | 28.72979 | 310 ft | 22 kts | 179° |
| 2026-05-07 22:43 | 41.27319 | 28.72981 | 312 ft | 23 kts | 179° |
| 2026-05-07 22:44 | 41.27207 | 28.72983 | 314 ft | 15 kts | 180° |
| 2026-05-07 22:44 | 41.27090 | 28.72983 | 316 ft | 18 kts | 180° |
| 2026-05-07 22:44 | 41.26955 | 28.72988 | 317 ft | 20 kts | 178° |
| 2026-05-07 22:44 | 41.26805 | 28.72991 | 319 ft | 22 kts | 180° |
| 2026-05-07 22:45 | 41.26640 | 28.72992 | 320 ft | 24 kts | 179° |
| 2026-05-07 22:45 | 41.26461 | 28.72996 | 320 ft | 26 kts | 179° |
| 2026-05-07 22:45 | 41.26286 | 28.73000 | 321 ft | 19 kts | 179° |
| 2026-05-07 22:45 | 41.26218 | 28.73094 | 322 ft | 17 kts | 93° |
| 2026-05-07 22:46 | 41.26219 | 28.73205 | 323 ft | 19 kts | 89° |
| 2026-05-07 22:46 | 41.26221 | 28.73366 | 324 ft | 10 kts | 90° |
| 2026-05-07 22:46 | 41.26203 | 28.73459 | 322 ft | 12 kts | 125° |
| 2026-05-07 22:46 | 41.26168 | 28.73575 | 323 ft | 13 kts | 106° |
| 2026-05-07 22:47 | 41.26157 | 28.73622 | 324 ft | 2 kts | 106° |
| 2026-05-07 22:47 | 41.26156 | 28.73626 | 324 ft | 0 kts | 106° |